createdAt,value
2018-09-27T00:01:41.401Z,87.90
2018-09-27T00:04:10.855Z,87.85
2018-09-27T00:06:40.641Z,87.98
2018-09-27T00:09:10.100Z,87.97
2018-09-27T00:11:39.655Z,87.54
2018-09-27T00:14:09.486Z,87.57
2018-09-27T00:16:38.917Z,87.39
2018-09-27T00:19:08.663Z,87.51
2018-09-27T00:21:38.103Z,87.71
2018-09-27T00:24:08.837Z,87.96
2018-09-27T00:26:38.286Z,88.06
2018-09-27T00:29:07.822Z,88.32
2018-09-27T00:31:37.554Z,88.26
2018-09-27T00:34:07.190Z,88.94
2018-09-27T00:36:37.632Z,89.16
2018-09-27T00:39:10.196Z,89.16
2018-09-27T00:41:40.019Z,89.80
2018-09-27T00:44:09.773Z,89.33
2018-09-27T00:46:39.251Z,88.62
2018-09-27T00:49:08.814Z,88.85
2018-09-27T00:51:38.242Z,89.02
2018-09-27T00:54:08.223Z,88.96
2018-09-27T00:56:37.993Z,89.31
2018-09-27T00:59:07.532Z,89.15
2018-09-27T01:01:37.456Z,89.23
2018-09-27T01:04:08.432Z,89.23
2018-09-27T01:06:38.318Z,89.85
2018-09-27T01:09:09.298Z,89.99
2018-09-27T01:11:38.998Z,89.98
2018-09-27T01:14:08.884Z,90.48
2018-09-27T01:16:38.622Z,91.43
2018-09-27T01:19:08.192Z,90.89
2018-09-27T01:21:38.072Z,91.09
2018-09-27T01:24:07.490Z,90.65
2018-09-27T01:26:37.105Z,90.58
2018-09-27T01:29:09.100Z,90.77
2018-09-27T01:31:38.837Z,90.97
2018-09-27T01:34:08.235Z,90.68
2018-09-27T01:36:37.765Z,91.02
2018-09-27T01:39:08.253Z,91.25
2018-09-27T01:41:37.803Z,90.91
2018-09-27T01:44:07.748Z,91.21
2018-09-27T01:46:37.525Z,91.78
2018-09-27T01:49:07.158Z,91.91
2018-09-27T01:51:37.083Z,91.23
2018-09-27T01:54:07.991Z,91.56
2018-09-27T01:56:37.531Z,91.39
2018-09-27T01:59:06.927Z,91.52
2018-09-27T02:01:36.334Z,91.20
2018-09-27T02:04:11.991Z,91.87
2018-09-27T02:06:41.687Z,91.29
2018-09-27T02:09:11.232Z,91.20
2018-09-27T02:11:40.846Z,91.13
2018-09-27T02:14:11.671Z,90.96
2018-09-27T02:16:41.392Z,91.07
2018-09-27T02:19:11.063Z,90.60
2018-09-27T02:21:40.801Z,90.35
2018-09-27T02:24:10.278Z,89.66
2018-09-27T02:26:40.027Z,90.17
2018-09-27T02:29:09.902Z,90.22
2018-09-27T02:31:39.658Z,90.58
2018-09-27T02:34:09.250Z,90.60
2018-09-27T02:36:38.943Z,90.68
2018-09-27T02:39:14.078Z,90.29
2018-09-27T02:41:43.598Z,89.76
2018-09-27T02:44:13.108Z,90.12
2018-09-27T02:46:42.959Z,90.23
2018-09-27T02:49:14.259Z,90.62
2018-09-27T02:51:44.001Z,91.09
2018-09-27T02:54:13.457Z,90.87
2018-09-27T02:56:43.015Z,90.76
2018-09-27T02:59:12.509Z,90.77
2018-09-27T03:01:42.170Z,91.12
2018-09-27T03:04:12.014Z,91.47
2018-09-27T03:06:42.025Z,91.56
2018-09-27T03:09:12.528Z,92.25
2018-09-27T03:11:42.573Z,91.95
2018-09-27T03:14:12.076Z,91.38
2018-09-27T03:16:42.313Z,91.60
2018-09-27T03:19:11.931Z,91.99
2018-09-27T03:21:42.075Z,91.60
2018-09-27T03:24:11.920Z,91.80
2018-09-27T03:26:41.767Z,92.02
2018-09-27T03:29:11.265Z,92.40
2018-09-27T03:31:41.490Z,92.38
2018-09-27T03:34:10.991Z,92.62
2018-09-27T03:36:40.722Z,91.88
2018-09-27T03:39:10.819Z,91.44
2018-09-27T03:41:40.796Z,91.59
2018-09-27T03:44:10.305Z,91.43
2018-09-27T03:46:40.245Z,91.29
2018-09-27T03:49:09.891Z,90.98
2018-09-27T03:51:39.366Z,90.62
2018-09-27T03:54:09.077Z,90.51
2018-09-27T03:56:40.044Z,90.56
2018-09-27T03:59:09.625Z,90.47
2018-09-27T04:01:39.048Z,90.84
2018-09-27T04:04:08.901Z,90.76
2018-09-27T04:06:40.451Z,90.98
2018-09-27T04:09:10.807Z,90.75
2018-09-27T04:11:40.779Z,91.59
2018-09-27T04:14:10.442Z,91.92
2018-09-27T04:16:39.910Z,92.05
2018-09-27T04:19:09.330Z,91.72
2018-09-27T04:21:44.013Z,91.47
2018-09-27T04:24:13.469Z,91.57
2018-09-27T04:26:43.288Z,91.52
2018-09-27T04:29:12.678Z,91.01
2018-09-27T04:31:42.168Z,90.76
2018-09-27T04:34:11.582Z,91.29
2018-09-27T04:36:42.422Z,90.78
2018-09-27T04:39:13.303Z,91.11
2018-09-27T04:41:42.888Z,90.73
2018-09-27T04:44:13.137Z,90.38
2018-09-27T04:46:42.837Z,90.60
2018-09-27T04:49:12.653Z,90.82
2018-09-27T04:51:47.805Z,90.70
2018-09-27T04:54:17.403Z,90.55
2018-09-27T04:56:47.056Z,90.71
2018-09-27T04:59:25.052Z,90.62
2018-09-27T05:01:55.188Z,90.31
2018-09-27T05:04:24.902Z,90.42
2018-09-27T05:07:04.153Z,90.52
2018-09-27T05:09:33.709Z,90.27
2018-09-27T05:12:04.653Z,90.04
2018-09-27T05:14:34.600Z,90.30
2018-09-27T05:17:04.007Z,90.31
2018-09-27T05:19:34.647Z,90.47
2018-09-27T05:22:04.340Z,90.11
2018-09-27T05:24:33.999Z,90.48
2018-09-27T05:27:03.453Z,90.54
2018-09-27T05:29:32.861Z,90.32
2018-09-27T05:32:02.538Z,90.63
2018-09-27T05:34:31.918Z,90.70
2018-09-27T05:37:01.477Z,90.35
2018-09-27T05:39:31.018Z,90.12
2018-09-27T05:42:00.478Z,90.06
2018-09-27T05:44:29.972Z,90.29
2018-09-27T05:47:00.055Z,90.25
2018-09-27T05:49:29.411Z,90.15
2018-09-27T05:51:59.012Z,90.37
2018-09-27T05:54:28.475Z,89.88
2018-09-27T05:56:59.784Z,89.87
2018-09-27T05:59:29.182Z,89.71
2018-09-27T06:01:58.880Z,89.58
2018-09-27T06:04:28.185Z,89.57
2018-09-27T06:07:06.915Z,89.37
2018-09-27T06:09:36.525Z,89.15
2018-09-27T06:12:06.033Z,89.41
2018-09-27T06:14:37.802Z,89.76
2018-09-27T06:17:07.576Z,90.29
2018-09-27T06:19:37.034Z,89.87
2018-09-27T06:22:06.497Z,89.90
2018-09-27T06:24:35.995Z,89.72
2018-09-27T06:27:05.437Z,88.60
2018-09-27T06:29:34.821Z,88.37
2018-09-27T06:32:07.794Z,88.92
2018-09-27T06:34:37.272Z,88.83
2018-09-27T06:37:06.796Z,88.40
2018-09-27T06:39:36.175Z,87.94
2018-09-27T06:42:06.949Z,87.90
2018-09-27T06:44:36.398Z,87.03
2018-09-27T06:47:05.896Z,86.59
2018-09-27T06:49:35.305Z,86.26
2018-09-27T06:52:05.108Z,86.01
2018-09-27T06:54:34.979Z,85.17
2018-09-27T06:57:04.530Z,84.62
2018-09-27T06:59:33.919Z,83.31
2018-09-27T07:02:03.903Z,82.99
2018-09-27T07:04:33.361Z,82.06
2018-09-27T07:07:03.065Z,81.97
2018-09-27T07:09:32.574Z,80.52
2018-09-27T07:12:04.859Z,80.28
2018-09-27T07:14:34.284Z,79.19
2018-09-27T07:17:03.901Z,74.49
2018-09-27T07:19:33.418Z,71.63
2018-09-27T07:22:04.474Z,68.19
2018-09-27T07:24:33.961Z,66.78
2018-09-27T07:27:05.211Z,64.10
2018-09-27T07:29:34.622Z,61.56
2018-09-27T07:32:04.306Z,60.99
2018-09-27T07:34:33.865Z,59.27
2018-09-27T07:37:30.400Z,58.69
2018-09-27T07:40:05.712Z,56.96
2018-09-27T07:44:41.437Z,54.42
2018-09-27T07:47:10.998Z,52.07
2018-09-27T07:49:40.509Z,52.25
2018-09-27T07:52:10.614Z,52.43
2018-09-27T07:54:40.292Z,52.23
2018-09-27T07:57:10.117Z,49.45
2018-09-27T07:59:39.732Z,49.28
2018-09-27T08:02:09.478Z,50.18
2018-09-27T08:04:39.083Z,49.97
2018-09-27T08:07:08.650Z,46.30
2018-09-27T08:09:38.191Z,45.72
2018-09-27T08:12:11.415Z,45.46
2018-09-27T08:14:41.365Z,44.82
2018-09-27T08:17:10.899Z,44.14
2018-09-27T08:19:40.581Z,44.90
2018-09-27T08:22:14.935Z,41.51
2018-09-27T08:24:44.474Z,42.25
2018-09-27T08:27:14.071Z,41.82
2018-09-27T08:29:43.541Z,42.26
2018-09-27T08:32:13.238Z,42.04
2018-09-27T08:34:49.713Z,43.58
2018-09-27T08:37:19.452Z,42.23
2018-09-27T08:39:49.495Z,39.90
2018-09-27T08:42:22.846Z,37.55
2018-09-27T08:44:53.136Z,38.70
2018-09-27T08:47:22.365Z,38.17
2018-09-27T08:49:52.254Z,37.25
2018-09-27T08:52:22.062Z,35.48
2018-09-27T08:55:01.939Z,36.77
2018-09-27T08:57:31.594Z,33.69
2018-09-27T09:00:01.378Z,34.09
2018-09-27T09:02:31.074Z,33.97
2018-09-27T09:05:00.593Z,33.88
2018-09-27T09:07:30.115Z,33.12
2018-09-27T09:10:00.942Z,33.84
2018-09-27T09:12:30.783Z,33.82
2018-09-27T09:15:00.339Z,33.06
2018-09-27T09:17:35.012Z,32.67
2018-09-27T09:20:04.533Z,32.83
2018-09-27T09:22:34.070Z,33.37
2018-09-27T09:25:03.571Z,31.08
2018-09-27T09:27:33.444Z,32.34
2018-09-27T09:30:02.988Z,32.95
2018-09-27T09:32:32.575Z,32.70
2018-09-27T09:35:02.049Z,36.59
2018-09-27T09:37:31.599Z,35.76
2018-09-27T09:40:01.544Z,37.97
2018-09-27T09:42:30.928Z,41.23
2018-09-27T09:45:00.480Z,41.60
2018-09-27T09:47:30.167Z,43.44
2018-09-27T09:50:00.127Z,45.11
2018-09-27T09:52:29.799Z,45.41
2018-09-27T09:55:02.747Z,45.12
2018-09-27T09:57:32.969Z,44.02
2018-09-27T10:00:02.513Z,45.34
2018-09-27T10:02:32.232Z,45.92
2018-09-27T10:05:02.181Z,46.90
2018-09-27T10:07:31.824Z,43.27
2018-09-27T10:12:08.394Z,42.08
2018-09-27T10:14:38.022Z,41.29
2018-09-27T10:17:07.747Z,42.02
2018-09-27T10:19:38.887Z,43.07
2018-09-27T10:22:09.267Z,42.69
2018-09-27T10:24:38.905Z,42.39
2018-09-27T10:27:08.333Z,43.82
2018-09-27T10:29:38.135Z,43.54
2018-09-27T10:32:07.900Z,43.68
2018-09-27T10:34:42.882Z,43.19
2018-09-27T10:37:12.689Z,43.78
2018-09-27T10:39:43.505Z,44.42
2018-09-27T10:42:13.063Z,44.74
2018-09-27T10:44:42.641Z,43.12
2018-09-27T10:47:12.334Z,43.59
2018-09-27T10:49:42.362Z,42.95
2018-09-27T10:52:11.890Z,44.42
2018-09-27T10:54:41.572Z,44.71
2018-09-27T10:57:11.321Z,43.86
2018-09-27T10:59:40.850Z,44.76
2018-09-27T11:02:10.681Z,44.89
2018-09-27T11:04:40.301Z,46.18
2018-09-27T11:07:09.781Z,46.64
2018-09-27T11:09:39.354Z,46.37
2018-09-27T11:12:09.105Z,47.10
2018-09-27T11:14:38.650Z,45.17
2018-09-27T11:17:08.133Z,47.43
2018-09-27T11:19:38.018Z,45.97
2018-09-27T11:22:07.741Z,43.06
2018-09-27T11:24:37.183Z,43.90
2018-09-27T11:27:07.189Z,44.87
2018-09-27T11:29:42.010Z,42.94
2018-09-27T11:32:16.628Z,43.68
2018-09-27T11:34:46.431Z,43.77
2018-09-27T11:37:15.939Z,43.54
2018-09-27T11:39:45.424Z,44.50
2018-09-27T11:42:15.651Z,45.04
2018-09-27T11:44:45.122Z,43.56
2018-09-27T11:47:14.964Z,43.61
2018-09-27T11:49:44.840Z,43.08
2018-09-27T11:52:15.524Z,41.69
2018-09-27T11:54:44.970Z,43.23
2018-09-27T11:57:14.371Z,43.05
2018-09-27T11:59:44.000Z,43.28
2018-09-27T12:02:13.622Z,42.97
2018-09-27T12:04:43.462Z,43.10
2018-09-27T12:07:14.356Z,42.17
2018-09-27T12:09:44.133Z,40.59
2018-09-27T12:12:14.014Z,41.89
2018-09-27T12:14:43.675Z,42.93
2018-09-27T12:17:13.292Z,42.33
2018-09-27T12:19:43.153Z,42.16
2018-09-27T12:22:12.822Z,42.85
2018-09-27T12:24:42.590Z,40.28
2018-09-27T12:27:12.110Z,40.58
2018-09-27T12:29:41.601Z,41.26
2018-09-27T12:32:11.124Z,42.28
2018-09-27T12:34:40.610Z,41.73
2018-09-27T12:37:10.135Z,40.40
2018-09-27T12:39:40.087Z,40.31
2018-09-27T12:42:10.111Z,41.10
2018-09-27T12:44:39.669Z,40.35
2018-09-27T12:47:11.553Z,40.70
2018-09-27T12:49:41.131Z,39.13
2018-09-27T12:52:10.811Z,38.48
2018-09-27T12:54:40.196Z,37.37
2018-09-27T12:57:09.724Z,38.52
2018-09-27T12:59:39.119Z,36.41
2018-09-27T13:02:08.706Z,34.27
2018-09-27T13:04:39.589Z,31.93
2018-09-27T13:07:09.416Z,33.67
2018-09-27T13:09:38.923Z,33.12
2018-09-27T13:12:08.476Z,34.22
2018-09-27T13:14:38.210Z,31.06
2018-09-27T13:17:07.839Z,28.29
2018-09-27T13:19:37.635Z,27.15
2018-09-27T13:22:07.094Z,25.94
2018-09-27T13:24:36.643Z,23.92
2018-09-27T13:27:06.382Z,26.25
2018-09-27T13:29:36.235Z,26.97
2018-09-27T13:32:05.803Z,26.97
2018-09-27T13:34:36.818Z,29.16
2018-09-27T13:37:07.811Z,30.29
2018-09-27T13:39:37.313Z,28.99
2018-09-27T13:42:06.949Z,30.53
2018-09-27T13:44:36.882Z,29.99
2018-09-27T13:47:06.765Z,32.58
2018-09-27T13:49:36.785Z,33.34
2018-09-27T13:52:06.469Z,32.95
2018-09-27T13:54:36.059Z,33.24
2018-09-27T13:57:05.743Z,32.68
2018-09-27T13:59:35.923Z,30.81
2018-09-27T14:02:05.925Z,26.59
2018-09-27T14:04:58.394Z,23.41
2018-09-27T14:07:34.598Z,21.44
2018-09-27T14:10:04.595Z,21.15
2018-09-27T14:12:34.371Z,20.53
2018-09-27T14:15:04.331Z,20.53
2018-09-27T14:22:14.480Z,20.21
2018-09-27T14:24:44.043Z,20.56
2018-09-27T14:27:14.201Z,21.02
2018-09-27T14:29:43.781Z,23.46
2018-09-27T14:32:15.795Z,22.18
2018-09-27T14:34:45.407Z,21.80
2018-09-27T14:37:17.238Z,21.22
2018-09-27T14:39:46.766Z,20.48
2018-09-27T14:42:18.148Z,20.26
2018-09-27T14:44:47.825Z,20.94
2018-09-27T14:47:17.480Z,19.45
2018-09-27T14:49:47.041Z,18.87
2018-09-27T14:52:17.935Z,19.29
2018-09-27T14:54:47.643Z,18.75
2018-09-27T14:57:17.166Z,18.95
2018-09-27T14:59:46.996Z,18.08
2018-09-27T15:02:16.591Z,18.26
2018-09-27T15:04:46.039Z,18.05
2018-09-27T15:07:15.569Z,18.02
2018-09-27T15:09:45.326Z,17.42
2018-09-27T15:12:15.747Z,16.98
2018-09-27T15:14:45.714Z,17.08
2018-09-27T15:17:15.373Z,17.50
2018-09-27T15:19:44.888Z,19.15
2018-09-27T15:22:14.303Z,21.61
2018-09-27T15:24:43.729Z,23.90
2018-09-27T15:27:13.185Z,23.24
2018-09-27T15:29:43.124Z,25.41
2018-09-27T15:32:12.832Z,25.26
2018-09-27T15:34:42.659Z,25.72
2018-09-27T15:37:12.148Z,23.72
2018-09-27T15:39:41.797Z,23.58
2018-09-27T15:42:11.345Z,26.75
2018-09-27T15:44:40.957Z,28.61
2018-09-27T15:47:10.521Z,29.53
2018-09-27T15:49:40.087Z,31.91
2018-09-27T15:52:09.717Z,33.02
2018-09-27T15:54:39.345Z,32.21
2018-09-27T15:57:09.171Z,34.08
2018-09-27T15:59:38.720Z,35.62
2018-09-27T16:02:08.291Z,36.24
2018-09-27T16:04:37.950Z,36.86
2018-09-27T16:07:07.388Z,37.32
2018-09-27T16:09:36.953Z,38.22
2018-09-27T16:12:06.549Z,39.63
2018-09-27T16:14:36.052Z,40.89
2018-09-27T16:17:05.737Z,42.98
2018-09-27T16:19:35.347Z,43.85
2018-09-27T16:22:04.907Z,43.10
2018-09-27T16:24:35.896Z,44.79
2018-09-27T16:27:07.327Z,44.98
2018-09-27T16:29:36.919Z,45.80
2018-09-27T16:32:07.140Z,46.72
2018-09-27T16:34:37.020Z,48.16
2018-09-27T16:37:08.098Z,48.63
2018-09-27T16:39:37.883Z,48.77
2018-09-27T16:42:08.178Z,49.36
2018-09-27T16:44:37.929Z,49.57
2018-09-27T16:47:08.357Z,50.12
2018-09-27T16:49:37.971Z,51.05
2018-09-27T16:52:07.791Z,51.16
2018-09-27T16:54:37.448Z,52.53
2018-09-27T16:57:08.500Z,52.40
2018-09-27T16:59:38.093Z,53.33
2018-09-27T17:02:09.392Z,53.40
2018-09-27T17:04:39.395Z,53.71
2018-09-27T17:07:11.310Z,54.25
2018-09-27T17:09:41.021Z,55.11
2018-09-27T17:12:12.394Z,55.43
2018-09-27T17:14:42.142Z,56.81
2018-09-27T17:17:13.337Z,57.51
2018-09-27T17:19:43.213Z,58.81
2018-09-27T17:22:13.376Z,59.63
2018-09-27T17:24:44.004Z,59.22
2018-09-27T17:27:14.277Z,59.48
2018-09-27T17:29:44.259Z,59.34
2018-09-27T17:32:16.327Z,59.15
2018-09-27T17:34:49.768Z,59.52
2018-09-27T17:37:19.850Z,59.66
2018-09-27T17:39:51.675Z,60.48
2018-09-27T17:42:21.611Z,60.48
2018-09-27T17:44:52.362Z,59.90
2018-09-27T17:47:25.336Z,60.29
2018-09-27T17:49:57.141Z,60.56
2018-09-27T17:52:26.628Z,60.72
2018-09-27T17:54:56.324Z,61.33
2018-09-27T17:57:25.898Z,60.84
2018-09-27T17:59:56.066Z,60.47
2018-09-27T18:02:25.899Z,60.46
2018-09-27T18:04:55.571Z,59.35
2018-09-27T18:07:25.656Z,59.48
2018-09-27T18:09:55.636Z,60.85
2018-09-27T18:12:25.534Z,61.24
2018-09-27T18:14:55.573Z,60.80
2018-09-27T18:17:25.408Z,61.59
2018-09-27T18:19:55.938Z,61.63
2018-09-27T18:22:27.816Z,61.37
2018-09-27T18:24:57.822Z,61.32
2018-09-27T18:27:27.848Z,60.96
2018-09-27T18:29:57.638Z,61.14
2018-09-27T18:32:30.335Z,62.01
2018-09-27T18:35:00.017Z,62.34
2018-09-27T18:37:31.458Z,62.97
2018-09-27T18:40:01.926Z,63.94
2018-09-27T18:42:32.148Z,64.62
2018-09-27T18:45:02.102Z,64.67
2018-09-27T18:47:34.394Z,65.18
2018-09-27T18:50:06.527Z,64.55
2018-09-27T18:52:36.738Z,64.32
2018-09-27T18:55:07.310Z,63.74
2018-09-27T18:57:37.540Z,63.25
2018-09-27T19:00:10.701Z,63.06
2018-09-27T19:02:41.480Z,62.87
2018-09-27T19:05:13.515Z,63.36
2018-09-27T19:07:56.131Z,63.16
2018-09-27T19:10:26.291Z,64.39
2018-09-27T19:21:04.144Z,67.73
2018-09-27T19:23:45.811Z,67.44
2018-09-27T19:26:21.326Z,67.89
2018-09-27T19:31:41.225Z,69.08
2018-09-27T19:36:53.763Z,70.47
2018-09-27T19:39:25.759Z,71.25
2018-09-27T19:41:58.374Z,71.40
2018-09-27T19:44:31.529Z,71.76
2018-09-27T19:47:04.929Z,71.79
2018-09-27T19:49:35.780Z,72.27
2018-09-27T19:52:06.695Z,71.85
2018-09-27T19:54:36.579Z,72.21
2018-09-27T19:57:06.157Z,72.61
2018-09-27T19:59:35.905Z,72.71
2018-09-27T20:02:05.392Z,72.71
2018-09-27T20:04:35.220Z,72.80
2018-09-27T20:07:04.645Z,73.21
2018-09-27T20:09:34.157Z,73.57
2018-09-27T20:12:03.941Z,74.29
2018-09-27T20:14:33.449Z,74.00
2018-09-27T20:17:03.213Z,74.14
2018-09-27T20:19:34.260Z,74.45
2018-09-27T20:22:04.425Z,74.12
2018-09-27T20:24:42.579Z,74.55
2018-09-27T20:27:12.967Z,74.08
2018-09-27T20:29:43.568Z,73.82
2018-09-27T20:32:13.398Z,73.34
2018-09-27T20:34:42.868Z,73.28
2018-09-27T20:37:12.587Z,74.08
2018-09-27T20:39:42.181Z,74.56
2018-09-27T20:42:14.010Z,74.80
2018-09-27T20:44:43.802Z,75.04
2018-09-27T20:47:13.771Z,74.83
2018-09-27T20:49:43.489Z,75.09
2018-09-27T20:52:14.890Z,74.61
2018-09-27T20:54:44.507Z,75.27
2018-09-27T20:57:14.188Z,75.77
2018-09-27T20:59:46.219Z,76.79
2018-09-27T21:02:15.705Z,76.74
2018-09-27T21:04:45.406Z,76.75
2018-09-27T21:07:15.088Z,76.91
2018-09-27T21:09:44.548Z,77.38
2018-09-27T21:12:14.127Z,76.95
2018-09-27T21:14:43.709Z,77.44
2018-09-27T21:17:13.335Z,77.47
2018-09-27T21:19:43.397Z,77.30
2018-09-27T21:22:13.354Z,77.02
2018-09-27T21:24:42.884Z,76.54
2018-09-27T21:27:12.850Z,76.63
2018-09-27T21:29:42.301Z,76.29
2018-09-27T21:32:11.827Z,76.76
2018-09-27T21:34:42.024Z,76.46
2018-09-27T21:37:11.662Z,76.63
2018-09-27T21:39:41.089Z,76.02
2018-09-27T21:42:10.856Z,76.12
2018-09-27T21:44:40.690Z,76.36
2018-09-27T21:47:10.781Z,77.34
2018-09-27T21:49:40.373Z,77.62
2018-09-27T21:52:10.299Z,77.97
2018-09-27T21:54:40.101Z,78.59
2018-09-27T21:57:09.625Z,78.45
2018-09-27T21:59:39.530Z,78.84
2018-09-27T22:02:08.926Z,78.84
2018-09-27T22:04:38.436Z,79.11
2018-09-27T22:07:07.863Z,79.18
2018-09-27T22:09:37.550Z,79.50
2018-09-27T22:12:07.049Z,79.67
2018-09-27T22:14:36.715Z,79.54
2018-09-27T22:17:06.306Z,79.63
2018-09-27T22:19:35.866Z,79.60
2018-09-27T22:22:05.538Z,79.30
2018-09-27T22:24:35.234Z,79.06
2018-09-27T22:27:04.719Z,78.29
2018-09-27T22:29:34.103Z,78.63
2018-09-27T22:32:03.587Z,79.17
2018-09-27T22:34:33.520Z,79.54
2018-09-27T22:37:03.869Z,79.94
2018-09-27T22:39:37.277Z,80.64
2018-09-27T22:42:06.963Z,80.27
2018-09-27T22:44:36.574Z,79.90
2018-09-27T22:47:06.063Z,80.70
2018-09-27T22:49:35.738Z,80.34
2018-09-27T22:52:06.173Z,80.14
2018-09-27T22:54:35.930Z,80.49
2018-09-27T22:57:05.402Z,80.41
2018-09-27T22:59:34.921Z,80.91
2018-09-27T23:02:04.819Z,80.87
2018-09-27T23:04:34.469Z,80.69
2018-09-27T23:07:04.362Z,80.32
2018-09-27T23:09:36.568Z,80.85
2018-09-27T23:12:06.276Z,81.14
2018-09-27T23:14:35.879Z,81.88
2018-09-27T23:17:05.477Z,81.68
2018-09-27T23:19:35.206Z,82.18
2018-09-27T23:22:05.161Z,82.23
2018-09-27T23:24:36.115Z,82.61
2018-09-27T23:27:05.771Z,82.92
2018-09-27T23:29:35.146Z,83.55
2018-09-27T23:32:04.570Z,83.29
2018-09-27T23:34:34.520Z,83.66
2018-09-27T23:37:04.315Z,83.27
2018-09-27T23:39:34.742Z,83.38
2018-09-27T23:42:04.417Z,83.63
2018-09-27T23:44:33.886Z,83.86
2018-09-27T23:47:03.704Z,83.49
2018-09-27T23:49:33.892Z,84.32
2018-09-27T23:52:03.591Z,84.65
2018-09-27T23:54:34.446Z,84.74
2018-09-27T23:57:04.074Z,84.88
2018-09-27T23:59:34.042Z,84.97
